Time;durP1;ratioP1;P1;durP2;ratioP2;P2;SDS_P1;SDS_P2;PMS_P1;PMS_P2;Temp;Humidity;BMP_temperature;BMP_pressure;BME280_temperature;BME280_humidity;BME280_pressure;Samples;Min_cycle;Max_cycle;Signal;HPM_P1;HPM_P2
2022/02/22 00:00:09;;;;;;;9.60;0.95;;;;;;;;;;5094344;28;20118;-31
2022/02/22 00:02:36;;;;;;;8.70;1.02;;;;;;;;;;5093294;28;20047;-31
2022/02/22 00:05:04;;;;;;;19.90;1.63;;;;;;;;;;5082391;28;20055;-31
2022/02/22 00:07:31;;;;;;;20.50;1.60;;;;;;;;;;5081287;28;20038;-35
2022/02/22 00:09:58;;;;;;;10.50;1.40;;;;;;;;;;5084159;28;20059;-32
2022/02/22 00:12:25;;;;;;;12.55;1.38;;;;;;;;;;5084148;28;20081;-31
2022/02/22 00:14:52;;;;;;;7.63;0.90;;;;;;;;;;5064654;28;20039;-32
2022/02/22 00:17:18;;;;;;;10.30;1.45;;;;;;;;;;5080704;28;20028;-32
2022/02/22 00:19:46;;;;;;;5.72;0.93;;;;;;;;;;5084343;28;20043;-33
2022/02/22 00:22:13;;;;;;;8.57;0.90;;;;;;;;;;5056693;28;20498;-33
2022/02/22 00:24:40;;;;;;;15.60;1.60;;;;;;;;;;5077966;28;20052;-34
2022/02/22 00:27:07;;;;;;;19.23;1.58;;;;;;;;;;5079673;28;20069;-35
2022/02/22 00:29:34;;;;;;;11.05;1.23;;;;;;;;;;5083390;28;20040;-39
2022/02/22 00:32:01;;;;;;;11.52;1.17;;;;;;;;;;5079424;28;20082;-34
2022/02/22 00:34:28;;;;;;;10.15;1.02;;;;;;;;;;5083245;28;20036;-34
2022/02/22 00:36:55;;;;;;;6.97;1.17;;;;;;;;;;5079978;28;20120;-35
2022/02/22 00:39:22;;;;;;;4.93;0.80;;;;;;;;;;5085924;28;20036;-37
2022/02/22 00:41:49;;;;;;;1.75;0.90;;;;;;;;;;5090689;28;20036;-35
2022/02/22 00:44:16;;;;;;;5.13;1.30;;;;;;;;;;5084913;28;20024;-34
2022/02/22 00:46:43;;;;;;;24.08;1.98;;;;;;;;;;5083915;28;20024;-38
2022/02/22 00:49:10;;;;;;;6.65;1.48;;;;;;;;;;5079206;28;20050;-29
2022/02/22 00:51:37;;;;;;;32.63;2.10;;;;;;;;;;5081522;28;20080;-35
2022/02/22 00:54:05;;;;;;;11.65;1.63;;;;;;;;;;5067894;28;20055;-31
2022/02/22 00:56:32;;;;;;;14.05;1.48;;;;;;;;;;5071023;28;20082;-29
2022/02/22 00:58:59;;;;;;;7.43;1.02;;;;;;;;;;5084334;28;20031;-36
2022/02/22 01:01:26;;;;;;;4.53;1.25;;;;;;;;;;5086792;28;20031;-29
2022/02/22 01:03:53;;;;;;;5.50;0.90;;;;;;;;;;5091474;28;20024;-30
2022/02/22 01:06:20;;;;;;;6.25;1.20;;;;;;;;;;5075139;28;20063;-27
2022/02/22 01:08:47;;;;;;;6.07;0.93;;;;;;;;;;5071511;28;20028;-27
2022/02/22 01:11:14;;;;;;;9.55;1.27;;;;;;;;;;5073242;28;20043;-27
2022/02/22 01:13:41;;;;;;;7.40;1.38;;;;;;;;;;5072787;28;20028;-24
2022/02/22 01:16:08;;;;;;;6.45;2.03;;;;;;;;;;5072138;28;20070;-24
2022/02/22 01:18:35;;;;;;;5.63;1.30;;;;;;;;;;5082356;28;20032;-30
2022/02/22 01:21:02;;;;;;;5.78;1.50;;;;;;;;;;5093265;28;20028;-31
2022/02/22 01:23:29;;;;;;;6.03;1.33;;;;;;;;;;5093095;28;20101;-28
2022/02/22 01:25:58;;;;;;;5.68;0.90;;;;;;;;;;5092724;28;20393;-28
2022/02/22 01:28:25;;;;;;;9.77;1.00;;;;;;;;;;5093699;28;20084;-33
2022/02/22 01:30:52;;;;;;;4.03;1.02;;;;;;;;;;5092783;28;20505;-27
2022/02/22 01:33:19;;;;;;;7.35;0.90;;;;;;;;;;5092656;28;20028;-26
2022/02/22 01:35:46;;;;;;;3.28;0.82;;;;;;;;;;5092889;28;20031;-28
2022/02/22 01:38:13;;;;;;;1.48;0.65;;;;;;;;;;5093086;28;20031;-31
2022/02/22 01:40:40;;;;;;;2.03;0.45;;;;;;;;;;5092452;28;20028;-33
2022/02/22 01:43:07;;;;;;;5.05;0.88;;;;;;;;;;5093296;28;20187;-38
2022/02/22 01:45:34;;;;;;;6.25;1.00;;;;;;;;;;5072595;28;20039;-27
2022/02/22 01:48:03;;;;;;;4.00;0.70;;;;;;;;;;5072558;28;20048;-28
2022/02/22 01:50:30;;;;;;;2.20;0.55;;;;;;;;;;5072187;28;20498;-33
2022/02/22 01:52:58;;;;;;;1.88;0.73;;;;;;;;;;5072953;28;20118;-30
2022/02/22 01:55:25;;;;;;;5.40;0.77;;;;;;;;;;5054689;28;20030;-27
2022/02/22 01:57:52;;;;;;;7.70;1.50;;;;;;;;;;5073162;28;20458;-27
2022/02/22 02:00:19;;;;;;;8.27;1.15;;;;;;;;;;5072160;28;20033;-28
2022/02/22 02:02:48;;;;;;;6.50;1.60;;;;;;;;;;5075571;28;20062;-26
2022/02/22 02:05:15;;;;;;;6.70;1.55;;;;;;;;;;5077944;28;20032;-26
2022/02/22 02:07:42;;;;;;;8.65;1.13;;;;;;;;;;5080666;28;20020;-27
2022/02/22 02:10:09;;;;;;;10.40;1.35;;;;;;;;;;5081616;28;20024;-26
2022/02/22 02:12:40;;;;;;;7.13;1.60;;;;;;;;;;5081317;28;20032;-27
2022/02/22 02:15:07;;;;;;;10.32;1.42;;;;;;;;;;5072911;28;20116;-26
2022/02/22 02:17:37;;;;;;;4.78;1.30;;;;;;;;;;5073149;28;20024;-26
2022/02/22 02:20:09;;;;;;;3.67;1.15;;;;;;;;;;5072633;28;20043;-26
2022/02/22 02:22:37;;;;;;;6.57;1.38;;;;;;;;;;5077960;28;20103;-26
2022/02/22 02:25:04;;;;;;;7.80;1.45;;;;;;;;;;5093245;28;20055;-25
2022/02/22 02:27:31;;;;;;;6.40;1.30;;;;;;;;;;5093188;28;20390;-26
2022/02/22 02:29:59;;;;;;;5.65;1.20;;;;;;;;;;5093072;28;20081;-28
2022/02/22 02:32:26;;;;;;;7.75;1.40;;;;;;;;;;5092821;28;20079;-27
2022/02/22 02:34:54;;;;;;;6.80;1.35;;;;;;;;;;5093167;28;20024;-27
2022/02/22 02:37:21;;;;;;;7.68;1.10;;;;;;;;;;5093082;28;20038;-26
2022/02/22 02:39:48;;;;;;;4.32;1.33;;;;;;;;;;5092291;28;20549;-26
2022/02/22 02:42:17;;;;;;;4.15;1.25;;;;;;;;;;5092888;28;20044;-26
2022/02/22 02:44:48;;;;;;;8.32;1.38;;;;;;;;;;5092982;28;20081;-27
2022/02/22 02:47:15;;;;;;;7.90;1.17;;;;;;;;;;5093058;28;20028;-26
2022/02/22 02:49:43;;;;;;;7.00;1.02;;;;;;;;;;5092640;28;20371;-26
2022/02/22 02:52:10;;;;;;;4.45;1.05;;;;;;;;;;5092852;28;20034;-27
2022/02/22 02:54:37;;;;;;;7.18;0.88;;;;;;;;;;5092799;28;20067;-26
2022/02/22 02:57:05;;;;;;;4.25;1.00;;;;;;;;;;5092907;28;20118;-25
2022/02/22 02:59:32;;;;;;;8.57;1.17;;;;;;;;;;5092493;28;20070;-27
2022/02/22 03:01:59;;;;;;;5.78;1.15;;;;;;;;;;5092688;28;20034;-26
2022/02/22 03:04:26;;;;;;;3.70;0.95;;;;;;;;;;5092622;28;20036;-26
2022/02/22 03:06:53;;;;;;;4.82;1.02;;;;;;;;;;5092679;28;20031;-28
2022/02/22 03:09:20;;;;;;;1.67;0.73;;;;;;;;;;5092551;28;20024;-26
2022/02/22 03:11:48;;;;;;;5.03;1.10;;;;;;;;;;5092194;28;20039;-26
2022/02/22 03:14:15;;;;;;;5.85;0.93;;;;;;;;;;5092425;28;20359;-26
2022/02/22 03:16:42;;;;;;;2.40;0.80;;;;;;;;;;5081543;28;20048;-26
2022/02/22 03:19:11;;;;;;;3.47;0.95;;;;;;;;;;5070189;28;20482;-26
2022/02/22 03:21:38;;;;;;;2.45;0.80;;;;;;;;;;5072223;28;20188;-27
2022/02/22 03:24:09;;;;;;;5.43;1.33;;;;;;;;;;5071939;28;20053;-28
2022/02/22 03:26:36;;;;;;;4.22;1.10;;;;;;;;;;5072177;28;20032;-27
2022/02/22 03:29:03;;;;;;;2.97;0.98;;;;;;;;;;5072151;28;20040;-26
2022/02/22 03:31:31;;;;;;;4.63;0.90;;;;;;;;;;5072017;28;20040;-26
2022/02/22 03:33:58;;;;;;;2.78;1.00;;;;;;;;;;5072141;28;20044;-27
2022/02/22 03:36:28;;;;;;;2.75;0.73;;;;;;;;;;5072220;28;20020;-27
2022/02/22 03:38:55;;;;;;;3.40;0.80;;;;;;;;;;5072176;28;20041;-28
2022/02/22 03:41:22;;;;;;;2.33;0.70;;;;;;;;;;5072083;28;20024;-28
2022/02/22 03:43:49;;;;;;;2.78;0.80;;;;;;;;;;5072055;28;20068;-27
2022/02/22 03:46:16;;;;;;;1.40;0.80;;;;;;;;;;5072007;28;20492;-27
2022/02/22 03:48:43;;;;;;;3.35;1.05;;;;;;;;;;5071973;28;20119;-27
2022/02/22 03:51:10;;;;;;;2.55;0.93;;;;;;;;;;5071981;28;20037;-27
2022/02/22 03:53:37;;;;;;;2.42;0.82;;;;;;;;;;5071952;28;20031;-27
2022/02/22 03:56:05;;;;;;;1.33;0.63;;;;;;;;;;5072058;28;21207;-26
2022/02/22 03:58:32;;;;;;;2.78;0.65;;;;;;;;;;5071837;28;20036;-26
2022/02/22 04:00:59;;;;;;;4.18;0.80;;;;;;;;;;5071943;28;20033;-26
2022/02/22 04:03:26;;;;;;;2.08;0.70;;;;;;;;;;5071786;28;20024;-27
2022/02/22 04:05:53;;;;;;;4.10;1.02;;;;;;;;;;5071827;28;20029;-25
2022/02/22 04:08:20;;;;;;;3.20;0.70;;;;;;;;;;5071740;28;20103;-27
2022/02/22 04:10:47;;;;;;;1.48;0.68;;;;;;;;;;5071767;28;20031;-27
2022/02/22 04:13:14;;;;;;;3.40;0.75;;;;;;;;;;5071844;28;20040;-27
2022/02/22 04:15:41;;;;;;;3.50;0.70;;;;;;;;;;5071546;28;20025;-28
2022/02/22 04:18:08;;;;;;;3.60;0.70;;;;;;;;;;5071247;28;20056;-25
2022/02/22 04:20:35;;;;;;;1.60;0.60;;;;;;;;;;5071508;28;20024;-26
2022/02/22 04:23:02;;;;;;;1.88;0.70;;;;;;;;;;5071338;28;20517;-27
2022/02/22 04:25:29;;;;;;;2.20;0.60;;;;;;;;;;5074146;28;20031;-26
2022/02/22 04:27:56;;;;;;;2.85;0.85;;;;;;;;;;5075078;28;20028;-27
2022/02/22 04:30:23;;;;;;;3.70;0.60;;;;;;;;;;5075035;28;20028;-27
2022/02/22 04:32:50;;;;;;;2.13;0.60;;;;;;;;;;5074928;28;20043;-27
2022/02/22 04:35:17;;;;;;;5.10;0.80;;;;;;;;;;5075247;28;20021;-26
2022/02/22 04:37:44;;;;;;;1.15;0.60;;;;;;;;;;5075124;28;20032;-27
2022/02/22 04:40:11;;;;;;;1.73;0.70;;;;;;;;;;5075122;28;20029;-26
2022/02/22 04:42:39;;;;;;;1.73;0.47;;;;;;;;;;5075104;28;20041;-26
2022/02/22 04:45:07;;;;;;;1.77;0.63;;;;;;;;;;5075018;28;20576;-25
2022/02/22 04:47:34;;;;;;;1.77;0.60;;;;;;;;;;5074974;28;20032;-26
2022/02/22 04:50:01;;;;;;;3.72;0.60;;;;;;;;;;5074964;28;20043;-26
2022/02/22 04:52:28;;;;;;;0.73;0.50;;;;;;;;;;5074734;28;20549;-27
2022/02/22 04:54:55;;;;;;;2.47;0.60;;;;;;;;;;5074661;28;20077;-28
2022/02/22 04:57:22;;;;;;;2.88;0.70;;;;;;;;;;5074846;28;20020;-29
2022/02/22 04:59:49;;;;;;;1.92;0.85;;;;;;;;;;5074710;28;20028;-26
2022/02/22 05:02:16;;;;;;;1.55;0.60;;;;;;;;;;5074762;28;20555;-27
2022/02/22 05:04:43;;;;;;;2.20;0.60;;;;;;;;;;5074749;28;20016;-27
2022/02/22 05:07:10;;;;;;;1.55;0.50;;;;;;;;;;5074607;28;20021;-27
2022/02/22 05:09:37;;;;;;;2.88;0.57;;;;;;;;;;5074526;28;20043;-27
2022/02/22 05:12:04;;;;;;;2.40;0.60;;;;;;;;;;5074549;28;20087;-26
2022/02/22 05:14:32;;;;;;;1.65;0.65;;;;;;;;;;5074554;28;20048;-28
2022/02/22 05:16:59;;;;;;;1.10;0.50;;;;;;;;;;5056480;28;20486;-26
2022/02/22 05:19:26;;;;;;;2.72;0.55;;;;;;;;;;5067731;28;20025;-27
2022/02/22 05:21:53;;;;;;;2.80;0.95;;;;;;;;;;5053932;28;20025;-28
2022/02/22 05:24:20;;;;;;;1.15;0.50;;;;;;;;;;5068229;28;20029;-26
2022/02/22 05:26:46;;;;;;;4.03;1.13;;;;;;;;;;5074141;28;20024;-27
2022/02/22 05:29:14;;;;;;;1.33;0.65;;;;;;;;;;5074205;28;20033;-26
2022/02/22 05:31:41;;;;;;;4.10;0.77;;;;;;;;;;5074076;28;20055;-26
2022/02/22 05:34:08;;;;;;;1.70;0.70;;;;;;;;;;5074212;28;20048;-26
2022/02/22 05:36:35;;;;;;;1.38;0.50;;;;;;;;;;5073957;28;20024;-27
2022/02/22 05:39:02;;;;;;;1.08;0.40;;;;;;;;;;5074018;28;20432;-26
2022/02/22 05:41:29;;;;;;;2.08;0.40;;;;;;;;;;5074101;28;20104;-27
2022/02/22 05:43:56;;;;;;;2.50;0.50;;;;;;;;;;5073929;28;20437;-27
2022/02/22 05:46:22;;;;;;;2.30;0.68;;;;;;;;;;5073979;28;20082;-29
2022/02/22 05:48:50;;;;;;;2.85;0.63;;;;;;;;;;5074010;28;20016;-26
2022/02/22 05:51:17;;;;;;;1.50;0.60;;;;;;;;;;5074228;28;20496;-26
2022/02/22 05:53:44;;;;;;;2.30;0.57;;;;;;;;;;5073810;28;20036;-26
2022/02/22 05:56:11;;;;;;;1.23;0.60;;;;;;;;;;5073694;28;20075;-26
2022/02/22 05:58:38;;;;;;;2.15;0.43;;;;;;;;;;5073571;28;20028;-27
2022/02/22 06:01:05;;;;;;;1.08;0.32;;;;;;;;;;5073635;28;20036;-26
2022/02/22 06:03:32;;;;;;;2.42;0.60;;;;;;;;;;5073532;28;20024;-27
2022/02/22 06:05:59;;;;;;;3.90;0.60;;;;;;;;;;5073526;28;20050;-26
2022/02/22 06:08:29;;;;;;;1.20;0.50;;;;;;;;;;5073381;28;20363;-27
2022/02/22 06:10:56;;;;;;;1.30;0.50;;;;;;;;;;5073269;28;20032;-27
2022/02/22 06:13:24;;;;;;;1.40;0.50;;;;;;;;;;5073449;28;20123;-26
2022/02/22 06:15:51;;;;;;;1.38;0.50;;;;;;;;;;5055378;28;20394;-27
2022/02/22 06:18:18;;;;;;;1.08;0.60;;;;;;;;;;5073186;28;20103;-26
2022/02/22 06:20:45;;;;;;;1.25;0.50;;;;;;;;;;5073224;28;20060;-27
2022/02/22 06:23:12;;;;;;;2.03;0.43;;;;;;;;;;5072870;28;20048;-26
2022/02/22 06:25:39;;;;;;;1.15;0.50;;;;;;;;;;5073180;28;20043;-26
2022/02/22 06:28:07;;;;;;;2.08;0.63;;;;;;;;;;5073045;28;20130;-30
2022/02/22 06:30:34;;;;;;;1.58;0.50;;;;;;;;;;5073089;28;20021;-26
2022/02/22 06:33:01;;;;;;;2.45;0.68;;;;;;;;;;5207767;22;20063;-27
2022/02/22 06:35:28;;;;;;;1.13;0.40;;;;;;;;;;5053095;28;20095;-27
2022/02/22 06:37:55;;;;;;;0.82;0.40;;;;;;;;;;5053042;28;20029;-27
2022/02/22 06:40:22;;;;;;;3.95;0.60;;;;;;;;;;5052779;28;20478;-25
2022/02/22 06:42:49;;;;;;;1.40;0.50;;;;;;;;;;5047624;28;20029;-26
2022/02/22 06:45:16;;;;;;;0.68;0.40;;;;;;;;;;5045845;28;20059;-28
2022/02/22 06:47:43;;;;;;;3.05;0.40;;;;;;;;;;5051681;28;20025;-28
2022/02/22 06:50:12;;;;;;;1.48;0.40;;;;;;;;;;5052267;28;20021;-28
2022/02/22 06:52:39;;;;;;;1.63;0.38;;;;;;;;;;5052111;28;20033;-28
2022/02/22 06:55:08;;;;;;;0.85;0.40;;;;;;;;;;5052270;28;20128;-28
2022/02/22 06:57:35;;;;;;;2.38;0.40;;;;;;;;;;5052109;28;20029;-28
2022/02/22 07:00:02;;;;;;;2.42;0.50;;;;;;;;;;5052136;28;20086;-28
2022/02/22 07:02:29;;;;;;;1.70;0.50;;;;;;;;;;5051905;28;20076;-28
2022/02/22 07:04:56;;;;;;;1.30;0.30;;;;;;;;;;5052035;28;20065;-28
2022/02/22 07:07:24;;;;;;;0.82;0.50;;;;;;;;;;5052013;28;20394;-28
2022/02/22 07:09:51;;;;;;;1.25;0.52;;;;;;;;;;5051908;28;20421;-28
2022/02/22 07:12:18;;;;;;;0.77;0.52;;;;;;;;;;5051979;28;20025;-29
2022/02/22 07:14:45;;;;;;;1.48;0.50;;;;;;;;;;5052147;28;20021;-28
2022/02/22 07:17:12;;;;;;;3.08;0.60;;;;;;;;;;5052183;28;20043;-28
2022/02/22 07:19:39;;;;;;;0.77;0.40;;;;;;;;;;5051983;28;20025;-28
2022/02/22 07:22:06;;;;;;;2.72;0.75;;;;;;;;;;5051898;28;20029;-28
2022/02/22 07:24:33;;;;;;;0.98;0.57;;;;;;;;;;5051956;28;20027;-28
2022/02/22 07:27:00;;;;;;;1.17;0.50;;;;;;;;;;5051997;28;20489;-28
2022/02/22 07:29:28;;;;;;;1.70;0.60;;;;;;;;;;5052027;28;20036;-28
2022/02/22 07:31:55;;;;;;;0.80;0.40;;;;;;;;;;5051627;28;20191;-28
2022/02/22 07:34:22;;;;;;;1.25;0.50;;;;;;;;;;5051969;28;20032;-28
2022/02/22 07:36:49;;;;;;;2.10;0.60;;;;;;;;;;5051901;28;20067;-28
2022/02/22 07:39:16;;;;;;;1.63;0.73;;;;;;;;;;5051908;28;20044;-28
2022/02/22 07:41:43;;;;;;;1.45;0.60;;;;;;;;;;5051696;28;20036;-28
2022/02/22 07:44:10;;;;;;;0.80;0.40;;;;;;;;;;5051858;28;20021;-28
2022/02/22 07:46:37;;;;;;;0.90;0.40;;;;;;;;;;5051702;28;20045;-28
2022/02/22 07:49:06;;;;;;;1.88;0.52;;;;;;;;;;5051773;28;20066;-28
2022/02/22 07:51:33;;;;;;;0.80;0.30;;;;;;;;;;5051498;28;20048;-28
2022/02/22 07:54:00;;;;;;;2.35;0.47;;;;;;;;;;5051731;28;20393;-28
2022/02/22 07:56:27;;;;;;;0.85;0.40;;;;;;;;;;5051557;28;20096;-28
2022/02/22 07:58:54;;;;;;;1.60;0.60;;;;;;;;;;5053634;28;20033;-28
2022/02/22 08:01:21;;;;;;;0.88;0.50;;;;;;;;;;5055506;28;20040;-28
2022/02/22 08:03:48;;;;;;;1.27;0.40;;;;;;;;;;5055595;28;20032;-28
2022/02/22 08:06:15;;;;;;;0.93;0.50;;;;;;;;;;5055558;28;20025;-28
2022/02/22 08:08:43;;;;;;;1.67;0.47;;;;;;;;;;5055475;28;20033;-28
2022/02/22 08:11:10;;;;;;;3.75;0.77;;;;;;;;;;5055323;28;20082;-28
2022/02/22 08:13:37;;;;;;;1.88;0.52;;;;;;;;;;5055465;28;20537;-28
2022/02/22 08:16:05;;;;;;;1.38;0.40;;;;;;;;;;5055398;28;20029;-28
2022/02/22 08:18:32;;;;;;;1.40;0.50;;;;;;;;;;5055498;28;20025;-28
2022/02/22 08:20:59;;;;;;;0.90;0.50;;;;;;;;;;5055166;28;20036;-28
2022/02/22 08:23:30;;;;;;;1.02;0.40;;;;;;;;;;5055307;28;20032;-28
2022/02/22 08:25:59;;;;;;;1.08;0.38;;;;;;;;;;5055158;28;20033;-28
2022/02/22 08:28:26;;;;;;;2.10;0.40;;;;;;;;;;5055142;28;20438;-28
2022/02/22 08:30:53;;;;;;;1.10;0.60;;;;;;;;;;5055107;28;20028;-30
2022/02/22 08:33:20;;;;;;;1.42;0.43;;;;;;;;;;5054914;28;20045;-28
2022/02/22 08:35:47;;;;;;;1.02;0.50;;;;;;;;;;5054899;28;20387;-28
2022/02/22 08:38:14;;;;;;;2.00;0.50;;;;;;;;;;5054970;28;20029;-28
2022/02/22 08:40:42;;;;;;;0.75;0.50;;;;;;;;;;5055010;28;20035;-28
2022/02/22 08:43:09;;;;;;;1.70;0.47;;;;;;;;;;5054778;28;20036;-28
2022/02/22 08:45:36;;;;;;;1.13;0.43;;;;;;;;;;5054875;28;20098;-28
2022/02/22 08:48:03;;;;;;;1.38;0.63;;;;;;;;;;5054777;28;20086;-28
2022/02/22 08:50:30;;;;;;;1.20;0.50;;;;;;;;;;5054756;28;20025;-28
2022/02/22 08:52:57;;;;;;;1.33;0.52;;;;;;;;;;5054648;28;20029;-28
2022/02/22 08:55:24;;;;;;;1.48;0.35;;;;;;;;;;5054502;28;20410;-28
2022/02/22 08:57:51;;;;;;;1.63;0.45;;;;;;;;;;5054628;28;20071;-28
2022/02/22 09:00:18;;;;;;;1.35;0.60;;;;;;;;;;5054590;28;20074;-28
2022/02/22 09:02:45;;;;;;;0.73;0.45;;;;;;;;;;5054378;28;20509;-28
2022/02/22 09:05:12;;;;;;;1.58;0.50;;;;;;;;;;5054542;28;20071;-28
2022/02/22 09:07:39;;;;;;;1.10;0.40;;;;;;;;;;5054440;28;20497;-28
2022/02/22 09:10:06;;;;;;;1.55;0.60;;;;;;;;;;5053801;28;20021;-28
2022/02/22 09:12:33;;;;;;;0.65;0.32;;;;;;;;;;5054201;28;20025;-28
2022/02/22 09:15:00;;;;;;;0.88;0.50;;;;;;;;;;5054166;28;20474;-28
2022/02/22 09:17:27;;;;;;;1.50;0.43;;;;;;;;;;5054276;28;20033;-28
2022/02/22 09:19:54;;;;;;;1.20;0.40;;;;;;;;;;5054247;28;20094;-28
2022/02/22 09:22:21;;;;;;;1.45;0.80;;;;;;;;;;5054081;28;20040;-28
2022/02/22 09:24:48;;;;;;;1.35;0.52;;;;;;;;;;5054064;28;20021;-28
2022/02/22 09:27:15;;;;;;;1.73;0.40;;;;;;;;;;5054009;28;20033;-28
2022/02/22 09:29:42;;;;;;;1.25;0.40;;;;;;;;;;5053548;28;20083;-28
2022/02/22 09:32:09;;;;;;;2.00;0.50;;;;;;;;;;5053372;28;20033;-28
2022/02/22 09:34:36;;;;;;;1.70;0.57;;;;;;;;;;5053956;28;20052;-28
2022/02/22 09:37:05;;;;;;;1.52;0.50;;;;;;;;;;5053712;28;20025;-28
2022/02/22 09:39:32;;;;;;;0.98;0.40;;;;;;;;;;5053757;28;20064;-28
2022/02/22 09:41:59;;;;;;;1.30;0.73;;;;;;;;;;5053640;28;20043;-28
2022/02/22 09:44:26;;;;;;;1.23;0.50;;;;;;;;;;5053741;28;20040;-28
2022/02/22 09:46:54;;;;;;;1.38;0.50;;;;;;;;;;5053704;28;20032;-28
2022/02/22 09:49:20;;;;;;;2.47;0.40;;;;;;;;;;5053599;28;20037;-28
2022/02/22 09:51:48;;;;;;;1.63;0.50;;;;;;;;;;5053342;28;20120;-28
2022/02/22 09:54:15;;;;;;;1.60;0.55;;;;;;;;;;5053584;28;20029;-28
2022/02/22 09:56:45;;;;;;;1.75;0.52;;;;;;;;;;5053357;28;20101;-28
2022/02/22 09:59:12;;;;;;;1.60;0.40;;;;;;;;;;5053527;28;20029;-28
2022/02/22 10:01:43;;;;;;;2.05;0.50;;;;;;;;;;5053149;28;20037;-28
2022/02/22 10:04:11;;;;;;;2.47;0.50;;;;;;;;;;5053381;28;20025;-28
2022/02/22 10:06:38;;;;;;;2.42;0.50;;;;;;;;;;5053311;28;20497;-28
2022/02/22 10:09:06;;;;;;;0.82;0.40;;;;;;;;;;5053308;28;20017;-28
2022/02/22 10:11:34;;;;;;;2.17;0.68;;;;;;;;;;5053173;28;20104;-28
2022/02/22 10:14:02;;;;;;;2.35;0.50;;;;;;;;;;5053175;28;20035;-28
2022/02/22 10:16:40;;;;;;;1.20;0.45;;;;;;;;;;5053219;28;20017;-28
2022/02/22 10:19:07;;;;;;;1.27;0.50;;;;;;;;;;5053237;28;20106;-28
2022/02/22 10:21:47;;;;;;;2.35;0.60;;;;;;;;;;5052001;28;20060;-28
2022/02/22 10:24:15;;;;;;;1.98;0.50;;;;;;;;;;5052815;28;20036;-28
2022/02/22 10:26:42;;;;;;;0.63;0.43;;;;;;;;;;5052936;28;20033;-28
2022/02/22 10:29:16;;;;;;;2.65;0.60;;;;;;;;;;5052921;28;20035;-28
2022/02/22 10:31:43;;;;;;;2.08;0.50;;;;;;;;;;5052529;28;20067;-28
2022/02/22 10:34:10;;;;;;;2.72;0.60;;;;;;;;;;5046290;28;20048;-28
2022/02/22 10:36:39;;;;;;;1.52;0.40;;;;;;;;;;5034355;28;20470;-28
2022/02/22 10:39:06;;;;;;;1.52;0.43;;;;;;;;;;5032035;28;20048;-28
2022/02/22 10:41:41;;;;;;;4.60;0.50;;;;;;;;;;5044651;28;20083;-28
2022/02/22 10:44:09;;;;;;;1.15;0.50;;;;;;;;;;5052037;28;20108;-28
2022/02/22 10:46:45;;;;;;;3.72;0.60;;;;;;;;;;5052326;28;20043;-28
2022/02/22 10:49:13;;;;;;;7.20;1.10;;;;;;;;;;5041679;28;20043;-31
2022/02/22 10:51:45;;;;;;;7.15;0.60;;;;;;;;;;5040404;28;20026;-30
2022/02/22 10:54:21;;;;;;;1.83;0.50;;;;;;;;;;5031829;28;20033;-30
2022/02/22 10:56:48;;;;;;;3.97;0.45;;;;;;;;;;5030683;28;20364;-30
2022/02/22 10:59:15;;;;;;;3.00;0.52;;;;;;;;;;5031516;28;20032;-30
2022/02/22 11:01:42;;;;;;;2.33;0.40;;;;;;;;;;5043016;28;20041;-30
2022/02/22 11:04:11;;;;;;;26.90;1.70;;;;;;;;;;5048849;28;20028;-29
2022/02/22 11:06:38;;;;;;;47.83;2.50;;;;;;;;;;5050734;28;20033;-27
2022/02/22 11:09:05;;;;;;;87.93;4.45;;;;;;;;;;5047672;28;20059;-29
2022/02/22 11:11:43;;;;;;;110.07;4.32;;;;;;;;;;5033600;28;20056;-31
2022/02/22 11:14:22;;;;;;;37.08;1.88;;;;;;;;;;5030914;28;20030;-25
2022/02/22 11:16:54;;;;;;;147.07;8.23;;;;;;;;;;5030491;28;20061;-45
2022/02/22 11:19:22;;;;;;;62.10;4.97;;;;;;;;;;5041949;28;20426;-47
2022/02/22 11:21:51;;;;;;;253.18;39.92;;;;;;;;;;5049924;28;20197;-47
2022/02/22 11:24:21;;;;;;;85.18;8.77;;;;;;;;;;5050719;28;20533;-41
2022/02/22 11:26:48;;;;;;;66.53;7.72;;;;;;;;;;5049556;28;20845;-41
2022/02/22 11:29:16;;;;;;;59.40;8.43;;;;;;;;;;5032980;28;20032;-39
2022/02/22 11:31:45;;;;;;;36.85;5.15;;;;;;;;;;5030502;28;20084;-36
2022/02/22 11:34:12;;;;;;;29.90;3.35;;;;;;;;;;5030106;28;20044;-40
2022/02/22 11:36:44;;;;;;;25.08;2.80;;;;;;;;;;5030541;28;20055;-38
2022/02/22 11:39:20;;;;;;;24.10;2.67;;;;;;;;;;5030822;28;20038;-39
2022/02/22 11:41:47;;;;;;;16.00;2.08;;;;;;;;;;5040996;28;20796;-38
2022/02/22 11:44:18;;;;;;;12.50;1.70;;;;;;;;;;5049905;28;20025;-37
2022/02/22 11:46:47;;;;;;;21.33;2.22;;;;;;;;;;5031917;28;20026;-37
2022/02/22 11:49:28;;;;;;;107.25;6.20;;;;;;;;;;5029041;28;20049;-45
2022/02/22 11:52:01;;;;;;;209.88;13.55;;;;;;;;;;5030292;28;20543;-39
2022/02/22 11:54:29;;;;;;;67.13;4.80;;;;;;;;;;5030737;28;20030;-38
2022/02/22 11:57:06;;;;;;;22.70;1.85;;;;;;;;;;5030523;28;20034;-37
2022/02/22 11:59:46;;;;;;;28.10;2.22;;;;;;;;;;5030626;28;20033;-38
2022/02/22 12:02:13;;;;;;;18.05;1.52;;;;;;;;;;5027163;28;20040;-37
2022/02/22 12:04:44;;;;;;;13.75;1.45;;;;;;;;;;5030111;28;20045;-37
2022/02/22 12:07:11;;;;;;;19.23;2.05;;;;;;;;;;5030581;28;20080;-37
2022/02/22 12:09:43;;;;;;;11.70;1.13;;;;;;;;;;5030939;28;20032;-37
2022/02/22 12:12:12;;;;;;;8.35;1.88;;;;;;;;;;5030164;28;20037;-40
2022/02/22 12:14:39;;;;;;;8.38;1.48;;;;;;;;;;5030488;28;20064;-37
2022/02/22 12:17:10;;;;;;;36.58;2.25;;;;;;;;;;5037960;28;20066;-40
2022/02/22 12:19:37;;;;;;;10.43;1.50;;;;;;;;;;5038714;28;20030;-41
2022/02/22 12:22:05;;;;;;;21.92;1.65;;;;;;;;;;5035566;28;20033;-40
2022/02/22 12:24:32;;;;;;;9.95;1.40;;;;;;;;;;5028647;28;20033;-37
2022/02/22 12:27:10;;;;;;;21.02;1.77;;;;;;;;;;5032537;28;21076;-40
2022/02/22 12:29:37;;;;;;;9.50;1.25;;;;;;;;;;5045291;28;20037;-40
2022/02/22 12:32:05;;;;;;;16.63;1.30;;;;;;;;;;5049756;28;20055;-46
2022/02/22 12:34:32;;;;;;;15.20;1.33;;;;;;;;;;5049515;28;20078;-38
2022/02/22 12:37:05;;;;;;;7.60;0.88;;;;;;;;;;5046640;28;20036;-39
2022/02/22 12:39:34;;;;;;;8.27;0.90;;;;;;;;;;5022134;28;20609;-40
2022/02/22 12:42:02;;;;;;;8.07;1.20;;;;;;;;;;5041535;28;20056;-41
2022/02/22 12:44:30;;;;;;;9.55;0.75;;;;;;;;;;5047107;28;20501;-40
2022/02/22 12:47:00;;;;;;;11.10;0.90;;;;;;;;;;5048500;28;20033;-41
2022/02/22 12:49:29;;;;;;;8.27;0.68;;;;;;;;;;5035786;28;20128;-38
2022/02/22 12:52:01;;;;;;;3.53;0.80;;;;;;;;;;5035702;28;20048;-41
2022/02/22 12:54:28;;;;;;;8.47;0.97;;;;;;;;;;5031476;28;20041;-39
2022/02/22 12:56:56;;;;;;;2.80;0.60;;;;;;;;;;5038290;28;20030;-41
2022/02/22 12:59:25;;;;;;;8.13;0.80;;;;;;;;;;5034321;28;20030;-40
2022/02/22 13:01:52;;;;;;;24.83;2.28;;;;;;;;;;5034038;28;20083;-41
2022/02/22 13:04:23;;;;;;;32.53;2.05;;;;;;;;;;5048944;28;20032;-38
2022/02/22 13:06:51;;;;;;;8.13;1.33;;;;;;;;;;5051784;28;20040;-40
2022/02/22 13:09:19;;;;;;;9.95;1.35;;;;;;;;;;5053541;28;20048;-41
2022/02/22 13:11:49;;;;;;;13.25;1.00;;;;;;;;;;5053673;28;20033;-40
2022/02/22 13:14:17;;;;;;;7.65;0.85;;;;;;;;;;5053737;28;20364;-39
2022/02/22 13:17:02;;;;;;;6.30;1.10;;;;;;;;;;5053572;28;20029;-44
2022/02/22 13:19:33;;;;;;;23.58;1.42;;;;;;;;;;5051265;28;20483;-42
2022/02/22 13:22:01;;;;;;;14.02;1.10;;;;;;;;;;5053284;28;20072;-40
2022/02/22 13:24:28;;;;;;;15.15;1.33;;;;;;;;;;5053799;28;20037;-39
2022/02/22 13:26:57;;;;;;;13.43;1.05;;;;;;;;;;5035891;28;20386;-39
2022/02/22 13:29:26;;;;;;;10.68;1.17;;;;;;;;;;5053849;28;20044;-39
2022/02/22 13:32:10;;;;;;;12.40;0.98;;;;;;;;;;5053523;28;20454;-38
2022/02/22 13:34:44;;;;;;;6.97;1.17;;;;;;;;;;5053555;28;20071;-38
2022/02/22 13:37:11;;;;;;;7.93;0.77;;;;;;;;;;5053423;28;20036;-39
2022/02/22 13:39:38;;;;;;;14.52;1.67;;;;;;;;;;5053455;28;20029;-39
2022/02/22 13:42:05;;;;;;;10.88;1.63;;;;;;;;;;5053222;28;20071;-39
2022/02/22 13:44:34;;;;;;;16.27;2.05;;;;;;;;;;5035280;28;20126;-37
2022/02/22 13:47:01;;;;;;;32.47;1.98;;;;;;;;;;5053280;28;20033;-39
2022/02/22 13:49:28;;;;;;;27.45;2.13;;;;;;;;;;5053201;28;20105;-40
2022/02/22 13:51:56;;;;;;;19.67;2.70;;;;;;;;;;5053357;28;20087;-39
2022/02/22 13:54:24;;;;;;;15.40;2.00;;;;;;;;;;5053338;28;20043;-39
2022/02/22 13:56:56;;;;;;;19.58;2.03;;;;;;;;;;5053216;28;20048;-40
2022/02/22 13:59:39;;;;;;;14.27;1.83;;;;;;;;;;5053182;28;20506;-39
2022/02/22 14:02:07;;;;;;;39.47;4.10;;;;;;;;;;5050603;28;20044;-43
2022/02/22 14:04:35;;;;;;;51.30;5.07;;;;;;;;;;5051620;28;20040;-41
2022/02/22 14:07:05;;;;;;;19.77;2.90;;;;;;;;;;5052786;28;20474;-40
2022/02/22 14:09:36;;;;;;;21.52;3.00;;;;;;;;;;5052635;28;20029;-40
2022/02/22 14:12:04;;;;;;;21.88;2.65;;;;;;;;;;5052315;28;20036;-40
2022/02/22 14:14:31;;;;;;;17.80;2.97;;;;;;;;;;5051569;28;20528;-40
2022/02/22 14:16:58;;;;;;;15.15;2.03;;;;;;;;;;5047605;28;20036;-39
2022/02/22 14:19:25;;;;;;;23.42;2.00;;;;;;;;;;5052183;28;20056;-40
2022/02/22 14:21:52;;;;;;;14.57;1.98;;;;;;;;;;5052348;28;20517;-39
2022/02/22 14:24:21;;;;;;;12.10;1.88;;;;;;;;;;5051810;28;20021;-39
2022/02/22 14:26:48;;;;;;;17.05;1.65;;;;;;;;;;5052524;28;20063;-40
2022/02/22 14:29:15;;;;;;;11.00;1.20;;;;;;;;;;5052063;28;20035;-39
2022/02/22 14:31:42;;;;;;;21.73;2.10;;;;;;;;;;5051050;28;20052;-39
2022/02/22 14:34:09;;;;;;;11.18;1.85;;;;;;;;;;5051951;28;20025;-39
2022/02/22 14:36:37;;;;;;;8.02;1.25;;;;;;;;;;5051967;28;20554;-39
2022/02/22 14:39:05;;;;;;;7.93;1.27;;;;;;;;;;5051666;28;20498;-38
2022/02/22 14:41:32;;;;;;;15.93;1.73;;;;;;;;;;5051966;28;20032;-39
2022/02/22 14:44:00;;;;;;;9.77;1.30;;;;;;;;;;5052051;28;20049;-39